Cullingworth, United Kingdom
Current Conditions -  °F | °C
As of 1:50 AM on Saturday 29 Nov 2014 (Local Time) from EGNM Reporting Station
Drizzle Drizzle  
Wind Chill: 43°   Ceiling: Unl
Heat Index: 46°   Visibility: 0.18mi
Dew Point: 46°   Wind: 7mph
Humidity: 100%   Direction: 70°ENE
Pressure: 29.83"   Gusts: NA
Location:  53.82°N, 1.9°W
Report Text: EGNM 290150Z 07006KT 040V100 0300 R14/0800 -DZ FG VV/// 08/08 Q1010
Loading
Personal Weather Stations






























Interactive Weather Map New forecast layout! Learn more

10-Day Weather Forecast

Advertisements
Track Severe Weather on mobile